Time;durP1;ratioP1;P1;durP2;ratioP2;P2;SDS_P1;SDS_P2;PMS_P1;PMS_P2;Temp;Humidity;BMP_temperature;BMP_pressure;BME280_temperature;BME280_humidity;BME280_pressure;Samples;Min_cycle;Max_cycle;Signal;HPM_P1;HPM_P2
2024/01/30 00:02:14;;;;;;;11.85;8.98;;;;;;;6.45;100.00;102614.59;5086447;28;20070;-78
2024/01/30 00:04:40;;;;;;;13.25;9.32;;;;;;;6.41;100.00;102611.06;5086431;28;20487;-78
2024/01/30 00:07:05;;;;;;;13.27;9.07;;;;;;;6.43;100.00;102616.25;5077937;28;20060;-78
2024/01/30 00:09:30;;;;;;;11.90;8.70;;;;;;;6.39;100.00;102612.72;5090100;28;20111;-78
2024/01/30 00:11:56;;;;;;;12.65;8.40;;;;;;;6.38;100.00;102618.75;5082782;28;20471;-78
2024/01/30 00:14:21;;;;;;;12.98;9.15;;;;;;;6.34;100.00;102619.50;5089552;28;20487;-78
2024/01/30 00:16:47;;;;;;;12.98;9.15;;;;;;;6.29;100.00;102622.00;5084958;28;20036;-78
2024/01/30 00:19:12;;;;;;;10.77;8.27;;;;;;;6.22;100.00;102612.34;5086900;28;20043;-78
2024/01/30 00:21:37;;;;;;;12.45;8.70;;;;;;;6.25;100.00;102620.19;5086180;28;20035;-78
2024/01/30 00:24:03;;;;;;;14.82;9.15;;;;;;;6.24;100.00;102612.38;5085731;28;20077;-78
2024/01/30 00:26:28;;;;;;;13.38;8.80;;;;;;;6.16;100.00;102604.44;5085381;28;20035;-78
2024/01/30 00:28:53;;;;;;;10.63;8.32;;;;;;;6.13;100.00;102611.28;5084331;28;20047;-78
2024/01/30 00:31:19;;;;;;;12.25;8.60;;;;;;;6.11;100.00;102618.97;5087874;28;20035;-78
2024/01/30 00:33:44;;;;;;;13.27;8.80;;;;;;;6.08;100.00;102609.47;5083608;28;20021;-77
2024/01/30 00:36:10;;;;;;;11.57;8.52;;;;;;;6.05;100.00;102611.09;5086122;28;20099;-78
2024/01/30 00:38:35;;;;;;;11.98;8.38;;;;;;;6.01;100.00;102601.50;5083539;28;20047;-78
2024/01/30 00:41:04;;;;;;;11.02;8.48;;;;;;;6.03;100.00;102608.47;5085137;28;20452;-77
2024/01/30 00:43:31;;;;;;;12.85;8.77;;;;;;;6.01;100.00;102602.34;5083384;28;20032;-78
2024/01/30 00:45:56;;;;;;;13.48;8.88;;;;;;;5.99;100.00;102606.66;5081082;28;20484;-78
2024/01/30 00:48:21;;;;;;;12.43;9.38;;;;;;;6.00;100.00;102602.34;5083192;28;20071;-78
2024/01/30 00:50:47;;;;;;;13.55;9.07;;;;;;;5.99;100.00;102601.47;5082227;28;20054;-78
2024/01/30 00:53:12;;;;;;;11.60;8.05;;;;;;;5.97;100.00;102597.97;5083658;28;20036;-77
2024/01/30 00:55:38;;;;;;;11.23;8.05;;;;;;;5.92;100.00;102593.47;5086464;28;20036;-78
2024/01/30 00:58:04;;;;;;;10.88;8.50;;;;;;;5.96;100.00;102600.53;5078405;28;20025;-78
2024/01/30 01:00:31;;;;;;;15.27;8.55;;;;;;;5.97;100.00;102590.19;5084992;28;20027;-78
2024/01/30 01:02:57;;;;;;;11.18;8.98;;;;;;;5.86;100.00;102584.72;5081163;28;20153;-78
2024/01/30 01:05:22;;;;;;;11.85;8.88;;;;;;;5.94;100.00;102597.00;5084885;28;20070;-78
2024/01/30 01:07:48;;;;;;;11.23;8.73;;;;;;;5.93;100.00;102595.28;5084723;28;20028;-78
2024/01/30 01:10:14;;;;;;;11.93;8.93;;;;;;;5.97;100.00;102604.84;5080178;28;20161;-78
2024/01/30 01:12:40;;;;;;;11.57;8.65;;;;;;;5.96;100.00;102596.22;5085332;28;20559;-78
2024/01/30 01:15:09;;;;;;;13.48;8.85;;;;;;;5.95;100.00;102584.13;5079989;28;20099;-78
2024/01/30 01:17:34;;;;;;;11.23;8.57;;;;;;;5.98;100.00;102591.94;5084215;28;20047;-78
2024/01/30 01:19:59;;;;;;;11.65;8.15;;;;;;;5.96;100.00;102585.84;5084895;28;20464;-78
2024/01/30 01:22:25;;;;;;;12.27;8.57;;;;;;;6.01;100.00;102583.38;5074899;28;20403;-78
2024/01/30 01:24:50;;;;;;;12.43;9.30;;;;;;;6.02;100.00;102585.13;5082294;28;20028;-78
2024/01/30 01:27:16;;;;;;;14.43;8.73;;;;;;;6.09;100.00;102582.72;5081124;28;20054;-78
2024/01/30 01:29:41;;;;;;;11.18;8.20;;;;;;;6.12;100.00;102586.22;5079066;28;20036;-78
2024/01/30 01:32:06;;;;;;;13.88;9.23;;;;;;;6.17;100.00;102580.28;5082640;28;20021;-78
2024/01/30 01:34:32;;;;;;;12.45;8.38;;;;;;;6.19;100.00;102581.22;5088128;28;20555;-78
2024/01/30 01:36:57;;;;;;;12.40;8.73;;;;;;;6.21;100.00;102579.53;5077321;28;20094;-78
2024/01/30 01:39:25;;;;;;;11.93;8.65;;;;;;;6.28;100.00;102584.00;5076534;28;20543;-78
2024/01/30 01:41:51;;;;;;;11.70;8.13;;;;;;;6.25;100.00;102573.56;5081503;28;20124;-78
2024/01/30 01:44:17;;;;;;;10.98;8.88;;;;;;;6.33;100.00;102568.56;5084842;28;20473;-78
2024/01/30 01:46:43;;;;;;;11.40;8.93;;;;;;;6.29;100.00;102564.16;5084875;28;20040;-78
2024/01/30 01:49:08;;;;;;;15.50;9.13;;;;;;;6.37;100.00;102566.91;5082414;28;20039;-78
2024/01/30 01:51:36;;;;;;;10.93;8.38;;;;;;;6.38;100.00;102568.66;5084663;28;20035;-78
2024/01/30 01:54:05;;;;;;;10.82;8.40;;;;;;;6.40;100.00;102566.97;5082978;28;20352;-78
2024/01/30 01:56:32;;;;;;;12.23;8.40;;;;;;;6.38;100.00;102563.50;5083734;28;20044;-78
2024/01/30 01:59:02;;;;;;;15.18;8.55;;;;;;;6.39;100.00;102562.63;5076159;28;20042;-78
2024/01/30 02:01:28;;;;;;;11.05;7.60;;;;;;;6.38;100.00;102553.13;5083591;28;20059;-78
2024/01/30 02:03:54;;;;;;;10.98;8.32;;;;;;;6.39;100.00;102560.03;5081389;28;20032;-78
2024/01/30 02:06:20;;;;;;;11.23;8.18;;;;;;;6.32;100.00;102549.56;5079006;28;20024;-78
2024/01/30 02:08:45;;;;;;;11.13;7.53;;;;;;;6.36;100.00;102549.63;5082354;28;20024;-78
2024/01/30 02:11:11;;;;;;;10.35;8.15;;;;;;;6.35;100.00;102553.06;5082772;28;20032;-78
2024/01/30 02:13:36;;;;;;;10.82;7.53;;;;;;;6.29;100.00;102543.44;5082074;28;20032;-78
2024/01/30 02:16:02;;;;;;;11.93;7.97;;;;;;;6.31;100.00;102542.63;5081643;28;20524;-78
2024/01/30 02:18:27;;;;;;;11.07;8.07;;;;;;;6.38;100.00;102558.31;5076840;28;20111;-78
2024/01/30 02:20:55;;;;;;;13.82;8.23;;;;;;;6.42;100.00;102555.81;5083239;28;20026;-78
2024/01/30 02:23:23;;;;;;;13.18;8.48;;;;;;;6.36;100.00;102547.91;5081712;28;20020;-78
2024/01/30 02:25:49;;;;;;;11.38;7.78;;;;;;;6.48;100.00;102552.47;5071090;28;20028;-78
2024/01/30 02:28:14;;;;;;;10.57;7.47;;;;;;;6.46;100.00;102544.66;5077411;28;20468;-78
2024/01/30 02:30:40;;;;;;;11.23;8.02;;;;;;;6.43;100.00;102546.31;5082147;28;20040;-78
2024/01/30 02:33:06;;;;;;;11.68;7.60;;;;;;;6.49;100.00;102552.50;5083707;28;20761;-78
2024/01/30 02:35:31;;;;;;;13.20;8.35;;;;;;;6.44;100.00;102548.94;5082632;28;20124;-78
2024/01/30 02:37:56;;;;;;;12.63;7.65;;;;;;;6.51;100.00;102545.63;5082629;28;20051;-78
2024/01/30 02:40:22;;;;;;;10.45;7.28;;;;;;;6.48;100.00;102545.56;5084307;28;20067;-78
2024/01/30 02:42:47;;;;;;;11.93;7.55;;;;;;;6.50;100.00;102549.03;5081424;28;20036;-78
2024/01/30 02:45:13;;;;;;;10.98;7.72;;;;;;;6.47;100.00;102538.63;5081934;28;20024;-78
2024/01/30 02:47:38;;;;;;;11.90;8.13;;;;;;;6.50;100.00;102543.88;5076149;28;20033;-78
2024/01/30 02:50:04;;;;;;;11.27;8.25;;;;;;;6.48;100.00;102542.97;5084148;28;20085;-78
2024/01/30 02:52:30;;;;;;;9.35;7.65;;;;;;;6.54;100.00;102555.19;5077996;28;20376;-78
2024/01/30 02:54:55;;;;;;;11.15;7.55;;;;;;;6.53;100.00;102540.47;5087386;28;20095;-78
2024/01/30 02:57:20;;;;;;;11.40;7.72;;;;;;;6.60;100.00;102547.50;5073897;28;20028;-78
2024/01/30 02:59:46;;;;;;;10.63;7.93;;;;;;;6.57;100.00;102530.22;5067109;28;20128;-78
2024/01/30 03:02:11;;;;;;;11.55;8.18;;;;;;;6.59;100.00;102532.81;5066551;28;20525;-78
2024/01/30 03:04:36;;;;;;;11.57;7.82;;;;;;;6.59;100.00;102538.00;5078583;28;20036;-78
2024/01/30 03:07:01;;;;;;;10.68;7.50;;;;;;;6.52;100.00;102543.91;5080917;28;20032;-78
2024/01/30 03:09:27;;;;;;;12.32;8.30;;;;;;;6.53;100.00;102541.34;5080627;28;20028;-78
2024/01/30 03:11:52;;;;;;;12.05;7.78;;;;;;;6.51;100.00;102526.63;5080414;28;20466;-78
2024/01/30 03:14:17;;;;;;;11.30;8.02;;;;;;;6.48;100.00;102513.59;5085056;28;20028;-78
2024/01/30 03:16:43;;;;;;;11.90;8.27;;;;;;;6.41;100.00;102514.31;5075101;28;20032;-78
2024/01/30 03:19:09;;;;;;;9.23;7.72;;;;;;;6.42;100.00;102518.66;5078705;28;20059;-78
2024/01/30 03:21:34;;;;;;;12.52;8.13;;;;;;;6.37;100.00;102515.97;5082430;28;20024;-78
2024/01/30 03:24:00;;;;;;;11.13;8.45;;;;;;;6.27;100.00;102509.72;5087058;28;20375;-78
2024/01/30 03:26:25;;;;;;;12.30;8.00;;;;;;;6.30;100.00;102514.09;5087137;28;20074;-78
2024/01/30 03:28:50;;;;;;;11.82;7.80;;;;;;;6.32;100.00;102512.41;5078119;28;20113;-78
2024/01/30 03:31:16;;;;;;;11.80;8.00;;;;;;;6.32;100.00;102513.28;5082265;28;20036;-78
2024/01/30 03:33:42;;;;;;;12.00;7.50;;;;;;;6.32;100.00;102504.66;5082854;28;20031;-78
2024/01/30 03:36:08;;;;;;;13.60;8.23;;;;;;;6.28;100.00;102506.31;5081256;28;20112;-78
2024/01/30 03:38:33;;;;;;;11.48;8.32;;;;;;;6.36;100.00;102516.81;5083077;28;20402;-78
2024/01/30 03:40:59;;;;;;;10.23;8.18;;;;;;;6.41;100.00;102509.13;5085708;28;20021;-78
2024/01/30 03:43:25;;;;;;;11.18;8.13;;;;;;;6.41;100.00;102510.03;5079764;28;20020;-78
2024/01/30 03:45:50;;;;;;;12.77;7.63;;;;;;;6.48;100.00;102508.44;5088455;28;20021;-77
2024/01/30 03:48:15;;;;;;;12.63;7.72;;;;;;;6.55;100.00;102515.47;5080752;28;20379;-78
2024/01/30 03:50:40;;;;;;;9.68;7.35;;;;;;;6.56;100.00;102523.25;5086615;28;20357;-78
2024/01/30 03:53:06;;;;;;;10.40;7.78;;;;;;;6.57;100.00;102526.72;5085641;28;20553;-77
2024/01/30 03:55:32;;;;;;;9.80;7.57;;;;;;;6.58;100.00;102515.53;5088338;28;20099;-78
2024/01/30 03:57:57;;;;;;;11.55;7.55;;;;;;;6.61;100.00;102525.97;5083232;28;20036;-78
2024/01/30 04:00:23;;;;;;;10.73;7.68;;;;;;;6.63;100.00;102518.19;5090553;28;20037;-77
2024/01/30 04:02:48;;;;;;;10.65;7.40;;;;;;;6.62;100.00;102512.16;5082642;28;20107;-78
2024/01/30 04:05:14;;;;;;;10.82;7.90;;;;;;;6.69;100.00;102524.38;5091006;28;20016;-78
2024/01/30 04:07:39;;;;;;;9.73;7.65;;;;;;;6.71;100.00;102520.13;5082515;28;20036;-78
2024/01/30 04:10:05;;;;;;;11.85;7.20;;;;;;;6.77;100.00;102532.31;5079242;28;20055;-78
2024/01/30 04:12:31;;;;;;;10.20;7.88;;;;;;;6.78;100.00;102518.50;5087346;28;20521;-78
2024/01/30 04:14:56;;;;;;;11.35;7.68;;;;;;;6.83;100.00;102521.19;5081941;28;20021;-78
2024/01/30 04:17:22;;;;;;;12.20;8.23;;;;;;;6.79;100.00;102513.34;5082429;28;20126;-78
2024/01/30 04:19:47;;;;;;;11.07;7.53;;;;;;;6.86;100.00;102514.31;5083647;28;20436;-78
2024/01/30 04:22:12;;;;;;;10.25;7.57;;;;;;;6.88;100.00;102512.66;5083606;28;20467;-78
2024/01/30 04:24:37;;;;;;;8.82;7.25;;;;;;;6.93;100.00;102510.13;5083543;28;20118;-78
2024/01/30 04:27:03;;;;;;;10.98;7.15;;;;;;;7.04;100.00;102511.22;5084581;28;20028;-78
2024/01/30 04:29:28;;;;;;;9.45;7.40;;;;;;;7.05;100.00;102507.75;5077700;28;20486;-78
2024/01/30 04:31:54;;;;;;;11.35;7.60;;;;;;;7.01;100.00;102500.78;5082150;28;20129;-78
2024/01/30 04:34:19;;;;;;;10.38;7.30;;;;;;;7.07;100.00;102494.84;5081285;28;20032;-78
2024/01/30 04:36:45;;;;;;;9.50;7.38;;;;;;;7.15;100.00;102496.69;5085224;28;20024;-78
2024/01/30 04:39:10;;;;;;;11.65;7.47;;;;;;;7.24;100.00;102498.59;5086786;28;20058;-78
2024/01/30 04:41:35;;;;;;;11.10;7.22;;;;;;;7.21;100.00;102482.97;5077898;28;20029;-78
2024/01/30 04:44:01;;;;;;;10.88;7.20;;;;;;;7.25;100.00;102490.81;5086027;28;20374;-78
2024/01/30 04:46:26;;;;;;;9.52;7.30;;;;;;;7.23;100.00;102476.97;5085152;28;20020;-78
2024/01/30 04:48:51;;;;;;;11.40;7.18;;;;;;;7.27;100.00;102477.88;5083676;28;20089;-78
2024/01/30 04:51:17;;;;;;;12.25;7.82;;;;;;;7.27;100.00;102467.50;5078810;28;20025;-78
2024/01/30 04:53:42;;;;;;;11.55;7.60;;;;;;;7.26;100.00;102466.63;5083328;28;20460;-78
2024/01/30 04:56:07;;;;;;;11.00;7.10;;;;;;;7.30;100.00;102470.16;5085436;28;20425;-78
2024/01/30 04:58:32;;;;;;;9.90;7.20;;;;;;;7.25;100.00;102464.00;5084120;28;20119;-78
2024/01/30 05:00:58;;;;;;;8.30;6.50;;;;;;;7.34;100.00;102474.53;5084448;28;20031;-77
2024/01/30 05:03:24;;;;;;;10.82;6.93;;;;;;;7.40;100.00;102479.81;5085575;28;20471;-78
2024/01/30 05:05:49;;;;;;;10.40;7.00;;;;;;;7.36;100.00;102472.84;5083477;28;20059;-78
2024/01/30 05:08:15;;;;;;;9.02;6.68;;;;;;;7.36;100.00;102477.16;5085048;28;20046;-78
2024/01/30 05:10:40;;;;;;;9.35;7.13;;;;;;;7.32;100.00;102485.72;5080377;28;20050;-78
2024/01/30 05:13:05;;;;;;;9.57;7.18;;;;;;;7.26;100.00;102466.63;5080198;28;20474;-78
2024/01/30 05:15:31;;;;;;;9.15;6.88;;;;;;;7.25;100.00;102485.63;5077702;28;20031;-78
2024/01/30 05:17:56;;;;;;;9.55;7.68;;;;;;;7.24;100.00;102489.06;5079235;28;20032;-78
2024/01/30 05:20:21;;;;;;;10.52;7.18;;;;;;;7.22;100.00;102482.97;5067294;28;20074;-78
2024/01/30 05:22:47;;;;;;;10.75;7.35;;;;;;;7.15;100.00;102473.34;5079218;28;20120;-78
2024/01/30 05:25:13;;;;;;;9.77;7.05;;;;;;;7.18;100.00;102480.31;5082683;28;20027;-78
2024/01/30 05:27:38;;;;;;;8.38;6.82;;;;;;;7.23;100.00;102479.56;5084431;28;20380;-78
2024/01/30 05:30:06;;;;;;;12.60;7.38;;;;;;;7.25;100.00;102476.97;5083137;28;20063;-78
2024/01/30 05:32:31;;;;;;;8.85;7.00;;;;;;;7.34;100.00;102484.03;5084745;28;20080;-78
2024/01/30 05:34:57;;;;;;;12.50;7.35;;;;;;;7.32;100.00;102475.34;5079372;28;20033;-78
2024/01/30 05:37:22;;;;;;;10.20;6.75;;;;;;;7.39;100.00;102488.47;5080931;28;20036;-78
2024/01/30 05:39:48;;;;;;;10.88;6.93;;;;;;;7.35;100.00;102476.28;5086531;28;20049;-78
2024/01/30 05:42:14;;;;;;;11.25;7.20;;;;;;;7.35;100.00;102471.06;5080684;28;20021;-78
2024/01/30 05:44:40;;;;;;;13.65;7.60;;;;;;;7.37;100.00;102474.59;5087511;28;20032;-78
2024/01/30 05:47:05;;;;;;;12.02;7.30;;;;;;;7.41;100.00;102478.97;5080788;28;20111;-78
2024/01/30 05:49:30;;;;;;;10.07;7.18;;;;;;;7.44;100.00;102485.94;5087863;28;20479;-78
2024/01/30 05:51:55;;;;;;;13.77;7.15;;;;;;;7.43;100.00;102489.38;5081156;28;20063;-78
2024/01/30 05:54:21;;;;;;;9.35;7.15;;;;;;;7.45;100.00;102472.97;5081529;28;20031;-78
2024/01/30 05:56:46;;;;;;;11.20;7.18;;;;;;;7.49;100.00;102484.28;5079352;28;20113;-78
2024/01/30 05:59:11;;;;;;;8.57;6.75;;;;;;;7.57;100.00;102487.00;5084971;28;20081;-78
2024/01/30 06:01:37;;;;;;;10.18;7.43;;;;;;;7.61;100.00;102492.25;5077586;28;20059;-78
2024/01/30 06:04:03;;;;;;;12.57;7.53;;;;;;;7.64;100.00;102488.81;5083965;28;20026;-78
2024/01/30 06:06:29;;;;;;;8.90;7.22;;;;;;;7.61;100.00;102483.59;5085748;28;20361;-78
2024/01/30 06:08:56;;;;;;;11.63;6.82;;;;;;;7.65;100.00;102488.88;5079632;28;20054;-78
2024/01/30 06:11:21;;;;;;;11.25;7.30;;;;;;;7.64;100.00;102473.25;5080604;28;20460;-78
2024/01/30 06:13:48;;;;;;;8.65;6.63;;;;;;;7.64;100.00;102487.09;5075368;28;20103;-78
2024/01/30 06:16:14;;;;;;;10.45;6.90;;;;;;;7.66;100.00;102477.63;5081288;28;20058;-78
2024/01/30 06:18:39;;;;;;;10.68;7.82;;;;;;;7.70;100.00;102486.31;5084152;28;20043;-78
2024/01/30 06:21:04;;;;;;;12.65;6.78;;;;;;;7.71;100.00;102481.13;5082766;28;20027;-78
2024/01/30 06:23:30;;;;;;;11.45;7.88;;;;;;;7.72;100.00;102479.44;5077604;28;20081;-78
2024/01/30 06:25:55;;;;;;;10.65;7.13;;;;;;;7.76;100.00;102482.97;5076839;28;20043;-78
2024/01/30 06:28:20;;;;;;;12.77;7.13;;;;;;;7.78;100.00;102478.63;5081746;28;20030;-77
2024/01/30 06:30:46;;;;;;;9.75;7.03;;;;;;;7.83;100.00;102489.97;5083773;28;20028;-78
2024/01/30 06:33:14;;;;;;;9.38;6.50;;;;;;;7.81;100.00;102486.47;5077298;28;20028;-78
2024/01/30 06:35:40;;;;;;;11.70;6.88;;;;;;;7.85;100.00;102502.13;5080101;28;20020;-78
2024/01/30 06:38:06;;;;;;;11.57;7.20;;;;;;;7.82;100.00;102502.09;5080457;28;20478;-78
2024/01/30 06:40:31;;;;;;;9.27;6.90;;;;;;;7.80;100.00;102500.31;5080309;28;20503;-78
2024/01/30 06:42:58;;;;;;;10.35;7.22;;;;;;;7.80;100.00;102500.31;5080299;28;20463;-78
2024/01/30 06:45:23;;;;;;;10.00;7.10;;;;;;;7.76;100.00;102503.72;5080048;28;20032;-78
2024/01/30 06:47:48;;;;;;;9.38;6.70;;;;;;;7.77;100.00;102495.06;5081515;28;20528;-78
2024/01/30 06:50:14;;;;;;;10.32;6.97;;;;;;;7.82;100.00;102509.00;5079908;28;20114;-78
2024/01/30 06:52:39;;;;;;;10.55;7.00;;;;;;;7.80;100.00;102489.94;5081057;28;20040;-78
2024/01/30 06:55:05;;;;;;;13.32;7.05;;;;;;;7.86;100.00;102510.78;5086814;28;20472;-78
2024/01/30 06:57:30;;;;;;;10.48;7.53;;;;;;;7.89;100.00;102510.84;5084893;28;20025;-78
2024/01/30 06:59:56;;;;;;;9.35;7.70;;;;;;;7.86;100.00;102510.78;5085286;28;20084;-78
2024/01/30 07:02:21;;;;;;;10.63;6.70;;;;;;;7.93;100.00;102521.28;5077511;28;20020;-78
2024/01/30 07:04:46;;;;;;;10.85;7.00;;;;;;;7.95;100.00;102539.50;5091208;28;20020;-78
2024/01/30 07:07:13;;;;;;;10.25;7.35;;;;;;;7.94;100.00;102540.31;5084282;28;20035;-78
2024/01/30 07:09:39;;;;;;;13.35;7.03;;;;;;;7.90;100.00;102531.63;5081980;28;20384;-78
2024/01/30 07:12:04;;;;;;;8.80;7.03;;;;;;;7.87;100.00;102534.16;5085817;28;20078;-78
2024/01/30 07:14:29;;;;;;;10.95;7.72;;;;;;;7.97;100.00;102545.56;5087787;28;20459;-78
2024/01/30 07:16:55;;;;;;;8.35;6.93;;;;;;;7.96;100.00;102542.09;5082776;28;20095;-78
2024/01/30 07:19:20;;;;;;;14.65;8.00;;;;;;;7.93;100.00;102536.88;5086948;28;20032;-78
2024/01/30 07:21:46;;;;;;;12.77;7.72;;;;;;;7.99;100.00;102536.09;5079218;28;20483;-78
2024/01/30 07:24:12;;;;;;;12.75;7.88;;;;;;;8.08;100.00;102545.75;5085257;28;20052;-78
2024/01/30 07:26:37;;;;;;;11.05;7.43;;;;;;;8.08;100.00;102544.00;5083391;28;20099;-78
2024/01/30 07:29:03;;;;;;;10.02;7.70;;;;;;;8.11;100.00;102549.25;5085965;28;20154;-78
2024/01/30 07:31:28;;;;;;;11.90;7.93;;;;;;;8.05;100.00;102556.09;5082458;28;20475;-78
2024/01/30 07:33:54;;;;;;;11.68;8.20;;;;;;;8.07;100.00;102560.44;5086017;28;20028;-78
2024/01/30 07:36:20;;;;;;;13.30;8.10;;;;;;;8.06;100.00;102561.28;5085664;28;20111;-78
2024/01/30 07:38:45;;;;;;;13.40;7.75;;;;;;;8.03;100.00;102565.56;5082252;28;20145;-77
2024/01/30 07:41:10;;;;;;;10.18;7.22;;;;;;;7.98;100.00;102563.78;5084912;28;20387;-78
2024/01/30 07:43:36;;;;;;;11.00;8.00;;;;;;;8.01;100.00;102560.38;5085107;28;20123;-78
2024/01/30 07:46:02;;;;;;;10.27;7.85;;;;;;;8.05;100.00;102572.53;5086698;28;20028;-78
2024/01/30 07:48:28;;;;;;;12.82;7.38;;;;;;;8.09;100.00;102563.06;5084260;28;20036;-78
2024/01/30 07:50:53;;;;;;;10.70;7.43;;;;;;;8.13;100.00;102570.91;5087187;28;20024;-78
2024/01/30 07:53:18;;;;;;;11.98;7.80;;;;;;;8.15;100.00;102566.63;5080558;28;20025;-77
2024/01/30 07:55:46;;;;;;;11.20;7.32;;;;;;;8.28;100.00;102572.00;5077497;28;20444;-78
2024/01/30 07:58:12;;;;;;;12.07;8.20;;;;;;;8.32;100.00;102571.19;5081083;28;20039;-78
2024/01/30 08:00:38;;;;;;;11.30;7.53;;;;;;;8.36;100.00;102579.03;5083419;28;20037;-78
2024/01/30 08:03:04;;;;;;;11.90;8.02;;;;;;;8.38;100.00;102585.16;5080662;28;20020;-78
2024/01/30 08:05:29;;;;;;;12.25;7.93;;;;;;;8.42;100.00;102581.75;5084101;28;20103;-78
2024/01/30 08:07:55;;;;;;;11.82;7.90;;;;;;;8.46;100.00;102587.84;5078033;28;20503;-78
2024/01/30 08:10:20;;;;;;;10.35;6.90;;;;;;;8.48;100.00;102590.50;5085322;28;20077;-78
2024/01/30 08:12:46;;;;;;;11.48;8.02;;;;;;;8.49;100.00;102593.09;5084714;28;20042;-78
2024/01/30 08:15:13;;;;;;;10.82;7.88;;;;;;;8.49;100.00;102589.63;5084815;28;20060;-78
2024/01/30 08:17:38;;;;;;;12.15;7.50;;;;;;;8.53;100.00;102584.47;5077596;28;20033;-78
2024/01/30 08:20:04;;;;;;;12.55;8.35;;;;;;;8.56;100.00;102589.72;5081870;28;20034;-78
2024/01/30 08:22:30;;;;;;;9.38;7.93;;;;;;;8.60;100.00;102588.91;5078521;28;20024;-78
2024/01/30 08:24:57;;;;;;;10.02;7.57;;;;;;;8.64;100.00;102588.09;5082543;28;20024;-78
2024/01/30 08:27:22;;;;;;;12.15;8.15;;;;;;;8.68;100.00;102584.66;5080356;28;20086;-76
2024/01/30 08:29:47;;;;;;;9.98;7.30;;;;;;;8.80;100.00;102585.69;5083918;28;20468;-78
2024/01/30 08:32:13;;;;;;;10.68;7.40;;;;;;;8.89;100.00;102588.38;5082983;28;20032;-78
2024/01/30 08:34:38;;;;;;;12.23;7.72;;;;;;;8.94;100.00;102593.66;5085231;28;20032;-78
2024/01/30 08:37:03;;;;;;;13.27;8.13;;;;;;;8.94;100.00;102580.63;5081183;28;20525;-78
2024/01/30 08:39:29;;;;;;;12.20;7.65;;;;;;;9.03;100.00;102586.81;5083950;28;20741;-77
2024/01/30 08:41:54;;;;;;;11.10;7.43;;;;;;;9.02;100.00;102571.16;5085183;28;20451;-78
2024/01/30 08:44:19;;;;;;;12.95;8.23;;;;;;;9.16;100.00;102590.41;5080837;28;20036;-78
2024/01/30 08:46:45;;;;;;;14.27;7.50;;;;;;;9.19;100.00;102576.53;5079481;28;20106;-78
2024/01/30 08:49:13;;;;;;;11.98;7.28;;;;;;;9.27;100.00;102585.31;5087747;28;20047;-78
2024/01/30 08:51:38;;;;;;;10.52;7.30;;;;;;;9.30;100.00;102587.94;5082084;28;20111;-78
2024/01/30 08:54:04;;;;;;;10.32;7.35;;;;;;;9.34;100.00;102598.41;5082158;28;20429;-78
2024/01/30 08:56:29;;;;;;;11.52;7.57;;;;;;;9.42;100.00;102589.78;5087077;28;20035;-78
2024/01/30 08:58:54;;;;;;;10.55;7.70;;;;;;;9.45;100.00;102587.19;5075753;28;20129;-78
2024/01/30 09:01:21;;;;;;;10.45;7.63;;;;;;;9.48;100.00;102582.94;5085619;28;20371;-77
2024/01/30 09:03:46;;;;;;;10.68;7.63;;;;;;;9.51;100.00;102580.31;5082968;28;20053;-77
2024/01/30 09:06:12;;;;;;;12.90;8.45;;;;;;;9.55;100.00;102574.31;5084228;28;20119;-77
2024/01/30 09:08:38;;;;;;;12.45;8.35;;;;;;;9.65;100.00;102587.41;5082895;28;20024;-77
2024/01/30 09:11:14;;;;;;;13.98;7.68;;;;;;;9.65;100.00;102590.88;5082280;28;20028;-77
2024/01/30 09:13:39;;;;;;;9.63;7.50;;;;;;;9.71;100.00;102585.72;5086641;28;20081;-77
2024/01/30 09:16:05;;;;;;;10.75;7.25;;;;;;;9.79;100.00;102591.84;5067637;28;20032;-77
2024/01/30 09:18:30;;;;;;;11.40;7.40;;;;;;;9.85;100.00;102604.94;5083653;28;20077;-77
2024/01/30 09:20:55;;;;;;;9.73;7.22;;;;;;;9.76;100.00;102593.56;5077729;28;20519;-78
2024/01/30 09:23:21;;;;;;;11.23;6.82;;;;;;;9.90;100.00;102602.34;5085509;28;20097;-78
2024/01/30 09:25:47;;;;;;;10.85;7.07;;;;;;;9.92;100.00;102605.84;5082548;28;20020;-77
2024/01/30 09:28:13;;;;;;;10.43;7.50;;;;;;;9.95;100.00;102598.03;5076502;28;20035;-78
2024/01/30 09:30:38;;;;;;;11.88;7.15;;;;;;;10.01;100.00;102603.31;5092079;28;20028;-78
2024/01/30 09:33:05;;;;;;;10.20;7.05;;;;;;;10.05;100.00;102602.47;5081664;28;20055;-78
2024/01/30 09:35:30;;;;;;;10.38;6.70;;;;;;;10.09;100.00;102600.75;5070701;28;20036;-78
2024/01/30 09:37:57;;;;;;;12.15;7.47;;;;;;;10.17;100.00;102603.38;5083084;28;20024;-77
2024/01/30 09:40:22;;;;;;;14.52;7.60;;;;;;;10.22;100.00;102612.13;5082274;28;20035;-78
2024/01/30 09:42:50;;;;;;;11.90;6.93;;;;;;;10.27;100.00;102624.38;5069659;28;20197;-78
2024/01/30 09:45:17;;;;;;;11.65;7.40;;;;;;;10.32;100.00;102624.38;5081459;28;20376;-78
2024/01/30 09:47:44;;;;;;;10.93;7.20;;;;;;;10.37;100.00;102629.63;5082583;28;20033;-78
2024/01/30 09:50:11;;;;;;;12.75;7.22;;;;;;;10.38;100.00;102627.03;5081064;28;20075;-78
2024/01/30 09:52:37;;;;;;;10.10;7.00;;;;;;;10.51;100.00;102643.63;5077269;28;20060;-77
2024/01/30 09:55:03;;;;;;;12.23;7.80;;;;;;;10.51;100.00;102633.19;5088280;28;20074;-78
2024/01/30 09:57:28;;;;;;;13.05;7.32;;;;;;;10.48;100.00;102630.56;5066259;28;20089;-78
2024/01/30 09:59:54;;;;;;;13.23;7.50;;;;;;;10.45;100.00;102626.19;5086114;28;20036;-78
2024/01/30 10:02:19;;;;;;;10.20;7.55;;;;;;;10.50;100.00;102627.09;5081231;28;20468;-79
2024/01/30 10:04:47;;;;;;;12.35;7.65;;;;;;;10.47;100.00;102623.59;5080899;28;20050;-79
2024/01/30 10:07:14;;;;;;;10.18;7.72;;;;;;;10.45;100.00;102615.75;5079271;28;20067;-79
2024/01/30 10:09:39;;;;;;;9.18;7.82;;;;;;;10.47;100.00;102629.69;5078011;28;20107;-79
2024/01/30 10:12:06;;;;;;;12.70;7.68;;;;;;;10.45;100.00;102638.34;5087678;28;20177;-78
2024/01/30 10:14:31;;;;;;;14.48;7.68;;;;;;;10.46;100.00;102627.97;5085186;28;20485;-79
2024/01/30 10:16:58;;;;;;;11.55;7.43;;;;;;;10.46;100.00;102638.38;5074108;28;20105;-79
2024/01/30 10:19:23;;;;;;;11.85;8.05;;;;;;;10.42;100.00;102631.38;5086665;28;20044;-79
2024/01/30 10:21:49;;;;;;;11.45;7.30;;;;;;;10.50;100.00;102640.13;5073963;28;20075;-78
2024/01/30 10:24:14;;;;;;;12.88;8.13;;;;;;;10.60;100.00;102637.59;5085385;28;20024;-78
2024/01/30 10:26:39;;;;;;;13.10;7.45;;;;;;;10.71;100.00;102641.97;5077786;28;20510;-78
2024/01/30 10:29:05;;;;;;;12.18;8.15;;;;;;;10.85;100.00;102647.25;5084487;28;20039;-78
2024/01/30 10:31:30;;;;;;;15.38;8.25;;;;;;;10.94;100.00;102643.81;5077915;28;20541;-78
2024/01/30 10:33:57;;;;;;;14.43;9.27;;;;;;;11.05;100.00;102651.66;5083298;28;20110;-78
2024/01/30 10:36:27;;;;;;;14.93;8.52;;;;;;;11.08;100.00;102662.97;5079735;28;20050;-78
2024/01/30 10:38:59;;;;;;;15.70;9.35;;;;;;;11.11;100.00;102659.53;5082534;28;20055;-78
2024/01/30 10:41:31;;;;;;;14.20;8.07;;;;;;;11.09;100.00;102656.06;5082732;28;20139;-78
2024/01/30 10:44:09;;;;;;;14.68;8.38;;;;;;;10.98;100.00;102635.13;5077114;28;20024;-78
2024/01/30 10:46:37;;;;;;;13.55;9.07;;;;;;;11.03;100.00;102656.91;5082276;28;20028;-78
2024/01/30 10:49:04;;;;;;;15.70;8.68;;;;;;;11.04;100.00;102652.53;5084555;28;20435;-78
2024/01/30 10:51:31;;;;;;;16.52;8.75;;;;;;;11.15;100.00;102651.72;5082248;28;20382;-78
2024/01/30 10:53:57;;;;;;;15.60;9.13;;;;;;;11.22;100.00;102644.78;5082976;28;20517;-78
2024/01/30 10:56:24;;;;;;;14.18;8.50;;;;;;;11.27;100.00;102645.66;5083544;28;20471;-78
2024/01/30 10:58:53;;;;;;;12.25;8.32;;;;;;;11.32;100.00;102653.50;5081501;28;20016;-78
2024/01/30 11:01:22;;;;;;;16.38;9.15;;;;;;;11.30;100.00;102647.41;5083861;28;20043;-78
2024/01/30 11:03:50;;;;;;;13.70;8.77;;;;;;;11.35;100.00;102659.59;5082680;28;20020;-78
2024/01/30 11:06:18;;;;;;;14.00;9.45;;;;;;;11.33;100.00;102648.28;5083222;28;20050;-78
2024/01/30 11:08:43;;;;;;;10.52;8.48;;;;;;;11.24;100.00;102653.47;5081082;28;20020;-78
2024/01/30 11:11:09;;;;;;;14.98;9.63;;;;;;;11.12;100.00;102656.94;5079588;28;20036;-78